createdAt,value
2023-11-18T00:00:12.468Z,100327.53
2023-11-18T00:02:40.759Z,100321.53
2023-11-18T00:05:08.885Z,100326.75
2023-11-18T00:07:36.703Z,100329.38
2023-11-18T00:10:05.768Z,100329.22
2023-11-18T00:12:36.972Z,100332.78
2023-11-18T00:15:05.596Z,100328.59
2023-11-18T00:17:34.726Z,100337.84
2023-11-18T00:20:02.418Z,100337.25
2023-11-18T00:22:30.873Z,100334.94
2023-11-18T00:24:57.999Z,100346.41
2023-11-18T00:27:26.329Z,100349.81
2023-11-18T00:29:54.416Z,100351.44
2023-11-18T00:32:21.983Z,100344.63
2023-11-18T00:34:49.283Z,100344.63
2023-11-18T00:37:16.666Z,100348.97
2023-11-18T00:39:43.841Z,100351.50
2023-11-18T00:42:11.153Z,100350.13
2023-11-18T00:44:39.070Z,100351.75
2023-11-18T00:47:06.797Z,100345.72
2023-11-18T00:49:35.345Z,100350.97
2023-11-18T00:52:02.914Z,100356.38
2023-11-18T00:54:30.326Z,100355.59
2023-11-18T00:56:57.723Z,100355.75
2023-11-18T00:59:24.993Z,100357.34
2023-11-18T01:01:52.088Z,100356.44
2023-11-18T01:04:21.215Z,100357.13
2023-11-18T01:06:49.535Z,100361.75
2023-11-18T01:09:17.520Z,100367.78
2023-11-18T01:12:07.072Z,100366.84
2023-11-18T01:14:31.911Z,100368.47
2023-11-18T01:16:59.262Z,100371.22
2023-11-18T01:19:26.419Z,100364.22
2023-11-18T01:21:54.432Z,100363.38
2023-11-18T01:24:21.619Z,100366.06
2023-11-18T01:26:49.102Z,100369.78
2023-11-18T01:29:16.402Z,100369.91
2023-11-18T01:31:51.777Z,100366.47
2023-11-18T01:34:23.931Z,100374.47
2023-11-18T01:36:51.648Z,100375.16
2023-11-18T01:39:19.489Z,100375.22
2023-11-18T01:41:47.358Z,100378.72
2023-11-18T01:44:15.057Z,100372.44
2023-11-18T01:46:46.813Z,100369.38
2023-11-18T01:49:15.822Z,100371.22
2023-11-18T01:51:46.641Z,100367.88
2023-11-18T01:54:20.381Z,100368.53
2023-11-18T01:56:50.467Z,100379.72
2023-11-18T01:59:21.012Z,100377.16
2023-11-18T02:01:54.735Z,100372.16
2023-11-18T02:04:23.029Z,100379.03
2023-11-18T02:06:51.323Z,100377.47
2023-11-18T02:09:20.439Z,100378.34
2023-11-18T02:12:01.269Z,100372.69
2023-11-18T02:14:30.123Z,100377.22
2023-11-18T02:17:01.268Z,100376.38
2023-11-18T02:19:31.363Z,100381.72
2023-11-18T02:21:59.589Z,100382.56
2023-11-18T02:24:32.362Z,100379.00
2023-11-18T02:27:00.667Z,100364.13
2023-11-18T02:29:33.938Z,100376.31
2023-11-18T02:32:11.721Z,100379.94
2023-11-18T02:34:44.923Z,100376.53
2023-11-18T02:37:13.809Z,100380.84
2023-11-18T02:39:45.602Z,100383.47
2023-11-18T02:42:14.702Z,100383.47
2023-11-18T02:44:45.018Z,100379.16
2023-11-18T02:47:12.374Z,100377.69
2023-11-18T02:49:40.235Z,100377.00
2023-11-18T02:52:07.625Z,100379.69
2023-11-18T02:54:34.755Z,100377.69
2023-11-18T02:57:02.397Z,100387.41
2023-11-18T02:59:32.256Z,100381.44
2023-11-18T03:01:59.501Z,100388.44
2023-11-18T03:04:27.094Z,100380.53
2023-11-18T03:06:54.233Z,100382.16
2023-11-18T03:09:21.400Z,100382.22
2023-11-18T03:11:48.748Z,100382.31
2023-11-18T03:14:15.906Z,100378.97
2023-11-18T03:16:43.279Z,100386.81
2023-11-18T03:19:10.582Z,100389.69
2023-11-18T03:21:38.192Z,100391.31
2023-11-18T03:24:05.966Z,100394.13
2023-11-18T03:26:33.762Z,100394.50
2023-11-18T03:31:46.084Z,100405.72
2023-11-18T03:34:13.333Z,100402.34
2023-11-18T03:36:40.499Z,100398.03
2023-11-18T03:39:07.682Z,100392.75
2023-11-18T03:41:34.729Z,100395.41
2023-11-18T03:44:01.899Z,100390.31
2023-11-18T03:46:35.869Z,100386.97
2023-11-18T03:49:03.229Z,100384.34
2023-11-18T03:51:30.779Z,100398.34
2023-11-18T03:53:57.896Z,100396.78
2023-11-18T03:56:25.500Z,100403.94
2023-11-18T03:58:52.697Z,100404.78
2023-11-18T04:01:29.906Z,100405.63
2023-11-18T04:03:57.374Z,100403.22
2023-11-18T04:06:25.702Z,100399.69
2023-11-18T04:08:52.967Z,100389.22
2023-11-18T04:11:20.187Z,100399.97
2023-11-18T04:13:47.551Z,100401.47
2023-11-18T04:16:18.063Z,100398.78
2023-11-18T04:18:47.078Z,100409.25
2023-11-18T04:21:14.657Z,100404.31
2023-11-18T04:23:45.401Z,100406.78
2023-11-18T04:26:13.277Z,100407.53
2023-11-18T04:28:40.567Z,100408.47
2023-11-18T04:31:07.860Z,100412.63
2023-11-18T04:33:35.075Z,100416.16
2023-11-18T04:36:02.734Z,100413.41
2023-11-18T04:38:30.071Z,100418.00
2023-11-18T04:40:57.290Z,100412.75
2023-11-18T04:43:30.819Z,100411.13
2023-11-18T04:46:07.824Z,100407.81
2023-11-18T04:48:39.714Z,100407.81
2023-11-18T04:51:08.821Z,100409.72
2023-11-18T04:53:36.027Z,100405.19
2023-11-18T04:56:04.229Z,100402.31
2023-11-18T04:58:31.458Z,100406.69
2023-11-18T05:00:58.795Z,100408.47
2023-11-18T05:03:25.994Z,100410.28
2023-11-18T05:05:56.041Z,100410.16
2023-11-18T05:08:25.466Z,100411.78
2023-11-18T05:10:53.104Z,100415.09
2023-11-18T05:13:20.433Z,100415.88
2023-11-18T05:15:48.543Z,100413.41
2023-11-18T05:18:16.893Z,100420.03
2023-11-18T05:20:45.510Z,100418.06
2023-11-18T05:23:13.803Z,100417.13
2023-11-18T05:25:41.577Z,100422.28
2023-11-18T05:28:09.877Z,100424.75
2023-11-18T05:30:37.523Z,100418.38
2023-11-18T05:33:08.633Z,100427.63
2023-11-18T05:35:36.385Z,100420.25
2023-11-18T05:38:04.536Z,100414.16
2023-11-18T05:40:31.649Z,100428.72
2023-11-18T05:43:00.074Z,100430.25
2023-11-18T05:45:33.120Z,100431.03
2023-11-18T05:48:00.504Z,100425.19
2023-11-18T05:50:28.542Z,100439.81
2023-11-18T05:52:56.559Z,100435.50
2023-11-18T05:55:23.776Z,100440.66
2023-11-18T05:57:50.943Z,100447.09
2023-11-18T06:00:25.519Z,100447.16
2023-11-18T06:02:57.960Z,100442.69
2023-11-18T06:05:27.679Z,100431.97
2023-11-18T06:07:54.923Z,100433.00
2023-11-18T06:10:22.045Z,100438.38
2023-11-18T06:12:49.271Z,100434.50
2023-11-18T06:15:18.413Z,100437.22
2023-11-18T06:17:47.062Z,100443.34
2023-11-18T06:20:15.636Z,100439.06
2023-11-18T06:22:42.886Z,100438.25
2023-11-18T06:25:10.340Z,100441.59
2023-11-18T06:27:37.438Z,100432.50
2023-11-18T06:30:05.174Z,100437.00
2023-11-18T06:32:33.062Z,100429.91
2023-11-18T06:35:00.206Z,100431.41
2023-11-18T06:37:33.759Z,100440.66
2023-11-18T06:40:01.202Z,100433.41
2023-11-18T06:42:29.016Z,100437.59
2023-11-18T06:44:56.158Z,100442.84
2023-11-18T06:47:24.271Z,100444.13
2023-11-18T06:49:53.592Z,100449.16
2023-11-18T06:52:22.590Z,100448.41
2023-11-18T06:54:53.168Z,100450.09
2023-11-18T06:57:20.513Z,100446.53
2023-11-18T06:59:47.684Z,100450.63
2023-11-18T07:02:14.850Z,100455.97
2023-11-18T07:04:42.057Z,100448.44
2023-11-18T07:07:10.254Z,100447.06
2023-11-18T07:09:37.523Z,100451.34
2023-11-18T07:12:05.181Z,100446.03
2023-11-18T07:14:32.306Z,100441.34
2023-11-18T07:16:59.496Z,100448.63
2023-11-18T07:19:26.629Z,100445.97
2023-11-18T07:21:53.805Z,100440.41
2023-11-18T07:24:22.022Z,100437.19
2023-11-18T07:26:52.397Z,100440.50
2023-11-18T07:29:20.275Z,100441.13
2023-11-18T07:31:48.107Z,100441.34
2023-11-18T07:34:16.386Z,100445.88
2023-11-18T07:36:47.293Z,100441.69
2023-11-18T07:39:17.533Z,100440.97
2023-11-18T07:41:45.743Z,100445.81
2023-11-18T07:44:14.540Z,100444.28
2023-11-18T07:46:44.376Z,100452.13
2023-11-18T07:49:12.613Z,100452.66
2023-11-18T07:51:41.880Z,100450.81
2023-11-18T07:54:11.475Z,100448.47
2023-11-18T07:56:39.333Z,100452.09
2023-11-18T07:59:09.635Z,100443.38
2023-11-18T08:01:37.422Z,100445.22
2023-11-18T08:04:08.108Z,100453.41
2023-11-18T08:06:35.492Z,100449.59
2023-11-18T08:09:04.018Z,100451.00
2023-11-18T08:11:31.305Z,100457.41
2023-11-18T08:14:00.231Z,100451.91
2023-11-18T08:16:29.047Z,100448.13
2023-11-18T08:18:57.008Z,100449.31
2023-11-18T08:21:24.420Z,100450.41
2023-11-18T08:23:53.871Z,100436.91
2023-11-18T08:26:21.613Z,100452.88
2023-11-18T08:28:49.496Z,100442.94
2023-11-18T08:31:17.233Z,100440.97
2023-11-18T08:33:47.876Z,100440.97
2023-11-18T08:36:15.206Z,100439.59
2023-11-18T08:38:45.598Z,100437.53
2023-11-18T08:41:14.495Z,100437.00
2023-11-18T08:43:44.968Z,100439.53
2023-11-18T08:46:13.243Z,100436.56
2023-11-18T08:48:40.383Z,100431.06
2023-11-18T08:51:10.632Z,100441.66
2023-11-18T08:53:42.528Z,100440.25
2023-11-18T08:56:15.324Z,100440.88
2023-11-18T08:58:50.769Z,100439.47
2023-11-18T09:01:18.090Z,100445.84
2023-11-18T09:03:50.005Z,100438.34
2023-11-18T09:06:27.161Z,100441.22
2023-11-18T09:08:55.372Z,100445.69
2023-11-18T09:11:24.809Z,100448.06
2023-11-18T09:13:58.624Z,100445.94
2023-11-18T09:16:31.251Z,100437.47
2023-11-18T09:19:03.854Z,100438.06
2023-11-18T09:21:33.888Z,100437.84
2023-11-18T09:24:01.103Z,100442.13
2023-11-18T09:26:31.720Z,100441.19
2023-11-18T09:28:59.696Z,100446.59
2023-11-18T09:31:27.940Z,100445.78
2023-11-18T09:33:55.261Z,100446.94
2023-11-18T09:36:24.074Z,100448.66
2023-11-18T09:38:51.690Z,100446.38
2023-11-18T09:41:19.947Z,100445.69
2023-11-18T09:43:49.286Z,100447.22
2023-11-18T09:46:18.049Z,100453.88
2023-11-18T09:48:54.215Z,100451.13
2023-11-18T09:51:27.672Z,100455.94
2023-11-18T09:53:55.656Z,100446.44
2023-11-18T09:56:57.099Z,100445.22
2023-11-18T09:59:36.154Z,100440.16
2023-11-18T10:02:12.025Z,100441.94
2023-11-18T10:04:40.648Z,100440.56
2023-11-18T10:07:12.640Z,100445.53
2023-11-18T10:09:40.253Z,100443.38
2023-11-18T10:12:09.318Z,100436.88
2023-11-18T10:14:37.474Z,100437.44
2023-11-18T10:17:08.125Z,100434.56
2023-11-18T10:20:14.562Z,100437.63
2023-11-18T10:22:43.037Z,100435.31
2023-11-18T10:25:10.173Z,100418.16
2023-11-18T10:27:40.013Z,100426.78
2023-11-18T10:30:20.554Z,100427.22
2023-11-18T10:33:07.551Z,100418.13
2023-11-18T10:35:37.085Z,100421.81
2023-11-18T10:38:05.988Z,100421.72
2023-11-18T10:40:40.209Z,100420.66
2023-11-18T10:43:11.490Z,100415.63
2023-11-18T10:45:45.153Z,100425.38
2023-11-18T10:48:18.930Z,100423.69
2023-11-18T10:50:48.678Z,100418.91
2023-11-18T10:53:17.637Z,100428.34
2023-11-18T10:55:45.541Z,100420.94
2023-11-18T10:58:15.909Z,100418.13
2023-11-18T11:00:57.008Z,100422.97
2023-11-18T11:03:27.028Z,100425.84
2023-11-18T11:05:56.280Z,100422.00
2023-11-18T11:08:32.767Z,100422.25
2023-11-18T11:11:09.564Z,100418.06
2023-11-18T11:13:39.174Z,100417.94
2023-11-18T11:16:13.691Z,100416.53
2023-11-18T11:18:48.746Z,100418.53
2023-11-18T11:21:26.001Z,100431.59
2023-11-18T11:24:06.471Z,100427.59
2023-11-18T11:26:58.184Z,100427.13
2023-11-18T11:29:48.446Z,100422.59
2023-11-18T11:32:53.429Z,100420.00
2023-11-18T11:35:45.804Z,100426.00
2023-11-18T11:38:18.086Z,100428.56
2023-11-18T11:40:48.910Z,100428.50
2023-11-18T11:43:22.915Z,100421.09
2023-11-18T11:45:56.851Z,100426.25
2023-11-18T11:48:29.338Z,100424.75
2023-11-18T11:51:03.905Z,100436.53
2023-11-18T11:53:40.566Z,100429.09
2023-11-18T11:56:08.637Z,100425.34
2023-11-18T11:58:39.426Z,100422.19
2023-11-18T12:01:48.486Z,100425.09
2023-11-18T12:04:29.988Z,100419.28
2023-11-18T12:07:02.933Z,100430.19
2023-11-18T12:09:45.362Z,100427.22
2023-11-18T12:12:20.849Z,100428.19
2023-11-18T12:14:53.919Z,100437.38
2023-11-18T12:17:24.210Z,100424.50
2023-11-18T12:19:52.707Z,100432.28
2023-11-18T12:22:26.138Z,100433.22
2023-11-18T12:24:59.896Z,100429.38
2023-11-18T12:28:00.303Z,100432.28
2023-11-18T12:30:38.360Z,100424.50
2023-11-18T12:33:10.556Z,100433.75
2023-11-18T12:35:39.455Z,100431.31
2023-11-18T12:38:37.498Z,100434.19
2023-11-18T12:41:12.483Z,100433.66
2023-11-18T12:44:22.226Z,100441.88
2023-11-18T12:46:56.864Z,100435.03
2023-11-18T12:49:27.105Z,100434.63
2023-11-18T12:51:58.127Z,100434.78
2023-11-18T12:54:29.559Z,100444.31
2023-11-18T12:56:57.635Z,100443.00
2023-11-18T12:59:26.263Z,100436.19
2023-11-18T13:01:58.789Z,100430.88
2023-11-18T13:04:27.633Z,100430.22
2023-11-18T13:06:55.849Z,100441.38
2023-11-18T13:09:33.811Z,100431.72
2023-11-18T13:12:05.537Z,100447.66
2023-11-18T13:14:37.872Z,100437.50
2023-11-18T13:17:10.118Z,100442.50
2023-11-18T13:19:37.563Z,100440.91
2023-11-18T13:22:10.273Z,100434.28
2023-11-18T13:24:41.449Z,100440.38
2023-11-18T13:27:15.714Z,100443.72
2023-11-18T13:29:54.532Z,100443.97
2023-11-18T13:32:27.676Z,100436.34
2023-11-18T13:34:55.222Z,100442.94
2023-11-18T13:37:24.362Z,100436.25
2023-11-18T13:40:03.006Z,100443.00
2023-11-18T13:42:35.393Z,100454.34
2023-11-18T13:45:33.440Z,100448.59
2023-11-18T13:48:04.149Z,100452.16
2023-11-18T13:50:40.919Z,100445.22
2023-11-18T13:53:09.651Z,100445.06
2023-11-18T13:55:40.313Z,100442.28
2023-11-18T13:58:08.159Z,100444.78
2023-11-18T14:00:35.541Z,100453.66
2023-11-18T14:03:12.400Z,100456.47
2023-11-18T14:05:40.307Z,100456.13
2023-11-18T14:08:14.333Z,100443.19
2023-11-18T14:10:42.522Z,100446.56
2023-11-18T14:13:32.950Z,100445.81
2023-11-18T14:16:00.886Z,100442.59
2023-11-18T14:18:28.737Z,100447.59
2023-11-18T14:20:56.398Z,100456.22
2023-11-18T14:23:24.218Z,100446.91
2023-11-18T14:25:52.697Z,100454.78
2023-11-18T14:28:26.345Z,100448.84
2023-11-18T14:30:59.561Z,100453.09
2023-11-18T14:33:26.702Z,100445.22
2023-11-18T14:36:02.582Z,100452.22
2023-11-18T14:38:30.259Z,100454.00
2023-11-18T14:40:58.467Z,100457.22
2023-11-18T14:43:25.745Z,100463.94
2023-11-18T14:45:59.191Z,100450.03
2023-11-18T14:48:29.995Z,100453.78
2023-11-18T14:50:58.401Z,100451.03
2023-11-18T14:53:26.316Z,100443.19
2023-11-18T14:55:53.526Z,100447.84
2023-11-18T14:58:20.855Z,100450.53
2023-11-18T15:00:50.398Z,100448.00
2023-11-18T15:03:17.831Z,100445.22
2023-11-18T15:05:45.542Z,100461.81
2023-11-18T15:08:14.072Z,100452.31
2023-11-18T15:10:45.706Z,100447.41
2023-11-18T15:13:19.552Z,100444.28
2023-11-18T15:15:49.711Z,100450.47
2023-11-18T15:18:21.531Z,100455.09
2023-11-18T15:20:57.806Z,100453.25
2023-11-18T15:23:28.197Z,100441.38
2023-11-18T15:25:55.836Z,100443.94
2023-11-18T15:28:23.217Z,100440.22
2023-11-18T15:30:51.946Z,100443.59
2023-11-18T15:33:22.399Z,100449.03
2023-11-18T15:35:50.073Z,100451.72
2023-11-18T15:38:24.914Z,100450.03
2023-11-18T15:40:53.936Z,100460.50
2023-11-18T15:43:21.312Z,100454.59
2023-11-18T15:45:52.933Z,100455.00
2023-11-18T15:48:20.202Z,100457.63
2023-11-18T15:50:47.544Z,100449.00
2023-11-18T15:53:15.803Z,100460.56
2023-11-18T15:55:49.200Z,100453.91
2023-11-18T15:58:17.604Z,100449.75
2023-11-18T16:00:44.828Z,100452.53
2023-11-18T16:03:14.997Z,100461.97
2023-11-18T16:05:42.339Z,100462.91
2023-11-18T16:08:10.375Z,100456.88
2023-11-18T16:10:41.794Z,100459.97
2023-11-18T16:13:09.296Z,100447.59
2023-11-18T16:15:37.151Z,100470.25
2023-11-18T16:18:05.071Z,100462.44
2023-11-18T16:21:02.824Z,100470.25
2023-11-18T16:23:36.585Z,100461.25
2023-11-18T16:26:04.289Z,100455.09
2023-11-18T16:28:31.655Z,100455.78
2023-11-18T16:30:59.200Z,100455.16
2023-11-18T16:33:41.946Z,100455.84
2023-11-18T16:36:09.609Z,100451.97
2023-11-18T16:38:36.934Z,100453.66
2023-11-18T16:41:04.561Z,100453.50
2023-11-18T16:43:32.452Z,100437.19
2023-11-18T16:46:01.184Z,100445.88
2023-11-18T16:48:30.453Z,100444.94
2023-11-18T16:50:58.106Z,100451.81
2023-11-18T16:53:25.808Z,100445.19
2023-11-18T16:55:55.801Z,100446.53
2023-11-18T16:58:23.037Z,100449.69
2023-11-18T17:00:52.479Z,100448.94
2023-11-18T17:03:19.783Z,100446.78
2023-11-18T17:05:47.102Z,100448.16
2023-11-18T17:08:15.294Z,100454.47
2023-11-18T17:10:44.313Z,100444.94
2023-11-18T17:13:18.240Z,100452.94
2023-11-18T17:15:45.970Z,100447.25
2023-11-18T17:18:13.177Z,100445.00
2023-11-18T17:20:42.457Z,100448.19
2023-11-18T17:23:12.436Z,100453.56
2023-11-18T17:25:42.907Z,100454.16
2023-11-18T17:28:18.037Z,100450.81
2023-11-18T17:30:45.436Z,100448.25
2023-11-18T17:33:13.118Z,100448.09
2023-11-18T17:35:41.944Z,100446.56
2023-11-18T17:38:10.378Z,100442.31
2023-11-18T17:40:39.319Z,100441.47
2023-11-18T17:43:06.485Z,100430.63
2023-11-18T17:45:34.461Z,100430.53
2023-11-18T17:48:08.175Z,100434.28
2023-11-18T17:50:35.426Z,100437.84
2023-11-18T17:53:05.305Z,100440.59
2023-11-18T17:55:33.777Z,100443.38
2023-11-18T17:58:01.074Z,100450.44
2023-11-18T18:00:29.040Z,100449.16
2023-11-18T18:02:59.212Z,100446.44
2023-11-18T18:05:26.583Z,100453.38
2023-11-18T18:07:56.304Z,100448.22
2023-11-18T18:10:28.840Z,100450.75
2023-11-18T18:12:58.170Z,100454.00
2023-11-18T18:15:27.955Z,100460.03
2023-11-18T18:17:56.151Z,100450.44
2023-11-18T18:20:31.523Z,100446.00
2023-11-18T18:23:08.109Z,100441.06
2023-11-18T18:25:37.126Z,100441.16
2023-11-18T18:28:05.804Z,100439.69
2023-11-18T18:30:33.634Z,100436.06
2023-11-18T18:33:01.165Z,100433.38
2023-11-18T18:35:34.842Z,100436.91
2023-11-18T18:38:02.235Z,100442.28
2023-11-18T18:40:33.088Z,100447.84
2023-11-18T18:43:04.309Z,100435.78
2023-11-18T18:45:34.998Z,100441.03
2023-11-18T18:48:03.659Z,100428.81
2023-11-18T18:50:35.859Z,100435.66
2023-11-18T18:53:03.543Z,100430.19
2023-11-18T18:55:50.389Z,100424.88
2023-11-18T18:58:17.644Z,100431.28
2023-11-18T19:00:44.861Z,100439.00
2023-11-18T19:03:13.126Z,100437.41
2023-11-18T19:05:40.462Z,100440.44
2023-11-18T19:08:12.156Z,100438.59
2023-11-18T19:10:39.367Z,100431.97
2023-11-18T19:13:06.779Z,100429.41
2023-11-18T19:15:34.149Z,100428.56
2023-11-18T19:18:01.337Z,100428.19
2023-11-18T19:20:28.736Z,100431.72
2023-11-18T19:22:56.615Z,100441.75
2023-11-18T19:25:23.806Z,100439.81
2023-11-18T19:27:51.229Z,100437.75
2023-11-18T19:30:21.122Z,100441.22
2023-11-18T19:32:49.803Z,100441.16
2023-11-18T19:35:17.177Z,100437.97
2023-11-18T19:37:44.575Z,100436.44
2023-11-18T19:40:12.547Z,100438.50
2023-11-18T19:42:40.066Z,100447.69
2023-11-18T19:45:09.410Z,100442.44
2023-11-18T19:47:37.059Z,100437.06
2023-11-18T19:50:05.169Z,100436.97
2023-11-18T19:52:32.692Z,100438.13
2023-11-18T19:54:59.804Z,100430.78
2023-11-18T19:57:27.318Z,100435.94
2023-11-18T19:59:57.613Z,100435.66
2023-11-18T20:02:25.069Z,100432.13
2023-11-18T20:04:52.390Z,100428.03
2023-11-18T20:07:22.487Z,100440.13
2023-11-18T20:09:50.305Z,100437.56
2023-11-18T20:12:17.545Z,100445.34
2023-11-18T20:14:44.747Z,100440.88
2023-11-18T20:17:12.036Z,100445.97
2023-11-18T20:19:39.812Z,100446.91
2023-11-18T20:22:10.840Z,100444.28
2023-11-18T20:24:38.739Z,100444.44
2023-11-18T20:27:05.780Z,100438.34
2023-11-18T20:29:34.950Z,100445.06
2023-11-18T20:32:03.605Z,100440.34
2023-11-18T20:34:31.068Z,100444.56
2023-11-18T20:36:58.277Z,100450.50
2023-11-18T20:39:25.509Z,100450.53
2023-11-18T20:41:52.700Z,100449.91
2023-11-18T20:44:19.936Z,100461.59
2023-11-18T20:46:47.917Z,100459.13
2023-11-18T20:49:18.611Z,100469.25
2023-11-18T20:51:46.067Z,100470.94
2023-11-18T20:54:13.292Z,100473.56
2023-11-18T20:56:40.482Z,100470.38
2023-11-18T20:59:07.749Z,100476.22
2023-11-18T21:01:34.805Z,100473.75
2023-11-18T21:04:02.355Z,100474.53
2023-11-18T21:06:31.011Z,100472.84
2023-11-18T21:08:58.225Z,100470.28
2023-11-18T21:11:27.310Z,100471.63
2023-11-18T21:13:57.550Z,100471.63
2023-11-18T21:16:24.731Z,100481.03
2023-11-18T21:18:52.047Z,100468.09
2023-11-18T21:21:20.095Z,100474.03
2023-11-18T21:23:49.210Z,100473.31
2023-11-18T21:26:16.296Z,100466.28
2023-11-18T21:28:43.696Z,100461.09
2023-11-18T21:31:10.897Z,100475.75
2023-11-18T21:33:38.805Z,100466.28
2023-11-18T21:36:06.488Z,100463.84
2023-11-18T21:38:34.915Z,100467.75
2023-11-18T21:41:02.121Z,100457.22
2023-11-18T21:43:29.240Z,100456.47
2023-11-18T21:45:56.426Z,100462.59
2023-11-18T21:48:24.144Z,100461.75
2023-11-18T21:50:52.153Z,100461.59
2023-11-18T21:53:22.132Z,100455.59
2023-11-18T21:55:55.129Z,100453.84
2023-11-18T21:58:25.884Z,100451.13
2023-11-18T22:00:53.237Z,100436.38
2023-11-18T22:03:20.508Z,100439.13
2023-11-18T22:05:48.412Z,100442.59
2023-11-18T22:08:20.554Z,100445.91
2023-11-18T22:10:48.842Z,100438.84
2023-11-18T22:13:16.072Z,100443.38
2023-11-18T22:15:43.341Z,100440.25
2023-11-18T22:18:10.836Z,100435.81
2023-11-18T22:20:39.288Z,100427.09
2023-11-18T22:23:09.623Z,100433.81
2023-11-18T22:25:37.304Z,100434.06
2023-11-18T22:28:04.519Z,100429.81
2023-11-18T22:30:31.761Z,100429.03
2023-11-18T22:33:01.395Z,100431.63
2023-11-18T22:35:31.774Z,100417.44
2023-11-18T22:38:01.446Z,100413.84
2023-11-18T22:40:28.611Z,100414.81
2023-11-18T22:42:56.884Z,100413.16
2023-11-18T22:45:24.174Z,100411.22
2023-11-18T22:47:51.981Z,100405.91
2023-11-18T22:50:23.075Z,100414.97
2023-11-18T22:52:51.502Z,100414.81
2023-11-18T22:55:20.628Z,100409.47
2023-11-18T22:57:47.951Z,100409.38
2023-11-18T23:00:35.197Z,100403.16
2023-11-18T23:03:03.534Z,100406.69
2023-11-18T23:05:30.868Z,100417.22
2023-11-18T23:07:58.224Z,100399.00
2023-11-18T23:10:26.305Z,100398.72
2023-11-18T23:12:56.292Z,100397.50
2023-11-18T23:15:25.847Z,100396.22
2023-11-18T23:17:54.153Z,100403.94
2023-11-18T23:20:22.579Z,100410.63
2023-11-18T23:22:51.867Z,100398.75
2023-11-18T23:25:24.190Z,100402.47
2023-11-18T23:28:01.072Z,100401.03
2023-11-18T23:30:29.696Z,100398.69
2023-11-18T23:32:56.972Z,100394.41
2023-11-18T23:35:24.124Z,100400.97
2023-11-18T23:37:55.398Z,100392.69
2023-11-18T23:40:24.256Z,100385.63
2023-11-18T23:42:52.139Z,100390.72
2023-11-18T23:45:20.224Z,100390.41
2023-11-18T23:47:52.464Z,100381.97
2023-11-18T23:50:21.238Z,100383.59
2023-11-18T23:52:48.782Z,100376.84
2023-11-18T23:55:16.295Z,100376.84
2023-11-18T23:57:43.996Z,100380.16
